KCRO2: Canadian River nr Konowa, OK

Data processed at Tue May 21 2019 22:30


All information presented herein is the property of the government of the United States of America and may be revised or deleted at any time without prior notice.
Dissemination of this information without the expressed written consent of the Public Affairs Office, Tulsa District U.S. Army Corps of Engineers is strictly prohibited.
These data are gathered electronically and, as presented, have not undergone any form of quality control. These data are not guaranteed to be valid or correct.
Go to home page.
Go to station list.
Go to home page.

Upstream stations:

Downstream station:
Previous Day
Next Day
Current Day
    
SHEF ID:       KCRO2     Canadian River nr Konowa, OK
STATION TYPE:  

               PRECIP     STAGE  RIV-FLOW   VOLTAGE  BAT-LOAD
                   in        ft       cfs      volt      volt
              Ccp-Rev   Ccp-Rev   Ccp-Rev   Ccp-Rev   Ccp-Rev
(US/Central)
05/21 00:00      0.00     10.51      3139     13.05     12.89
05/21 01:00      0.00     10.44      2965     12.97     12.81
05/21 02:00      0.00     10.44      2965     12.97     12.81
05/21 03:00      0.00     10.43      2941     12.97     12.81
05/21 04:00      0.00     10.40      2868     12.97     12.81
05/21 05:00      0.00     10.38      2820     12.97     12.81
05/21 06:00      0.77     10.40      2868     12.89     12.73
05/21 07:00      0.31     10.54      3215     12.89     12.73
05/21 08:00      0.07     10.72      3653     12.89     12.73
05/21 09:00      0.01     10.89      4062     12.97     12.81
05/21 10:00      0.03     11.16      4744     12.89     12.73
05/21 11:00      0.00     11.44      5493     12.97     12.89
05/21 12:00      0.00     11.57      5855     13.13     12.97
05/21 13:00      0.00     11.61      5969     13.68     13.29
05/21 14:00      0.00     11.73      6313     13.53     13.37
05/21 15:00      0.00     11.82      6576     13.76     13.37
05/21 16:00      0.00     11.90      6814     13.53     13.37
05/21 17:00      0.00     12.12      7495     13.76     13.37
05/21 18:00      0.01     12.39      8420     13.21     13.05
05/21 19:00      0.00     12.72      9613     13.13     12.97
05/21 20:00      0.00     13.09     11029     13.05     12.97
05/21 21:00      0.00     13.38     12160     13.05     12.89
05/21 22:00      ----      ----      ----      ----      ----
05/21 23:00      ----      ----      ----      ----      ----